createdAt,value
2023-02-19T00:00:01.425Z,95.00
2023-02-19T00:00:48.233Z,96.86
2023-02-19T00:01:46.228Z,96.90
2023-02-19T00:02:33.076Z,97.04
2023-02-19T00:03:19.939Z,97.61
2023-02-19T00:04:09.965Z,98.83
2023-02-19T00:04:56.782Z,98.58
2023-02-19T00:05:43.616Z,98.88
2023-02-19T00:06:31.714Z,100.00
2023-02-19T00:07:18.545Z,100.00
2023-02-19T00:08:05.361Z,100.00
2023-02-19T00:08:52.393Z,100.00
2023-02-19T00:09:39.194Z,100.00
2023-02-19T00:10:26.034Z,100.00
2023-02-19T00:11:15.946Z,100.00
2023-02-19T00:12:02.785Z,100.00
2023-02-19T00:12:49.596Z,100.00
2023-02-19T00:13:38.007Z,100.00
2023-02-19T00:14:24.792Z,100.00
2023-02-19T00:15:11.623Z,100.00
2023-02-19T00:15:58.499Z,100.00
2023-02-19T00:16:45.498Z,100.00
2023-02-19T00:17:32.494Z,100.00
2023-02-19T00:18:19.375Z,100.00
2023-02-19T00:19:08.691Z,100.00
2023-02-19T00:19:55.504Z,100.00
2023-02-19T00:20:42.323Z,100.00
2023-02-19T00:21:29.904Z,100.00
2023-02-19T00:22:16.714Z,100.00
2023-02-19T00:23:03.574Z,100.00
2023-02-19T00:23:52.014Z,100.00
2023-02-19T00:24:38.970Z,100.00
2023-02-19T00:25:25.861Z,100.00
2023-02-19T00:26:18.633Z,100.00
2023-02-19T00:27:05.758Z,100.00
2023-02-19T00:27:52.575Z,100.00
2023-02-19T00:28:39.810Z,100.00
2023-02-19T00:29:26.670Z,100.00
2023-02-19T00:30:13.730Z,100.00
2023-02-19T00:31:13.818Z,100.00
2023-02-19T00:32:00.927Z,100.00
2023-02-19T00:32:51.485Z,100.00
2023-02-19T00:33:38.318Z,100.00
2023-02-19T00:34:25.193Z,100.00
2023-02-19T00:35:12.076Z,100.00
2023-02-19T00:36:03.246Z,100.00
2023-02-19T00:36:50.076Z,99.89
2023-02-19T00:37:36.920Z,100.00
2023-02-19T00:38:23.718Z,100.00
2023-02-19T00:39:14.295Z,100.00
2023-02-19T00:40:00.977Z,100.00
2023-02-19T00:40:47.828Z,100.00
2023-02-19T00:41:34.814Z,100.00
2023-02-19T00:42:21.726Z,100.00
2023-02-19T00:43:08.599Z,100.00
2023-02-19T00:44:03.149Z,100.00
2023-02-19T00:44:49.943Z,100.00
2023-02-19T00:45:36.718Z,100.00
2023-02-19T00:46:26.555Z,100.00
2023-02-19T00:47:13.509Z,100.00
2023-02-19T00:48:00.319Z,100.00
2023-02-19T00:48:47.533Z,100.00
2023-02-19T00:49:34.339Z,100.00
2023-02-19T00:50:21.428Z,100.00
2023-02-19T00:51:08.616Z,99.03
2023-02-19T00:51:55.701Z,98.17
2023-02-19T00:52:42.513Z,98.00
2023-02-19T00:53:29.298Z,96.73
2023-02-19T00:54:16.641Z,97.52
2023-02-19T00:55:04.117Z,97.63
2023-02-19T00:55:50.908Z,97.62
2023-02-19T00:56:37.769Z,97.85
2023-02-19T00:57:24.631Z,96.96
2023-02-19T00:58:11.484Z,96.69
2023-02-19T00:58:58.363Z,96.38
2023-02-19T00:59:45.188Z,95.58
2023-02-19T01:00:33.698Z,94.38
2023-02-19T01:01:21.175Z,93.65
2023-02-19T01:02:08.007Z,94.19
2023-02-19T01:02:54.897Z,94.81
2023-02-19T01:03:42.175Z,93.97
2023-02-19T01:04:29.089Z,94.07
2023-02-19T01:05:16.060Z,95.74
2023-02-19T01:06:04.064Z,96.58
2023-02-19T01:06:50.964Z,97.16
2023-02-19T01:07:38.385Z,99.05
2023-02-19T01:08:25.506Z,100.00
2023-02-19T01:09:12.424Z,100.00
2023-02-19T01:09:59.279Z,100.00
2023-02-19T01:10:46.665Z,100.00
2023-02-19T01:11:33.506Z,100.00
2023-02-19T01:12:20.417Z,100.00
2023-02-19T01:13:07.268Z,100.00
2023-02-19T01:13:58.646Z,100.00
2023-02-19T01:14:45.647Z,100.00
2023-02-19T01:15:35.464Z,100.00
2023-02-19T01:16:24.976Z,100.00
2023-02-19T01:17:11.816Z,100.00
2023-02-19T01:17:58.634Z,100.00
2023-02-19T01:18:46.133Z,100.00
2023-02-19T01:19:33.023Z,100.00
2023-02-19T01:20:19.934Z,100.00
2023-02-19T01:21:09.073Z,100.00
2023-02-19T01:21:56.095Z,100.00
2023-02-19T01:22:42.921Z,100.00
2023-02-19T01:23:29.802Z,100.00
2023-02-19T01:24:16.935Z,100.00
2023-02-19T01:25:03.852Z,100.00
2023-02-19T01:25:50.745Z,100.00
2023-02-19T01:26:37.660Z,100.00
2023-02-19T01:27:24.474Z,100.00
2023-02-19T01:28:11.474Z,100.00
2023-02-19T01:29:01.843Z,100.00
2023-02-19T01:29:48.662Z,100.00
2023-02-19T01:30:37.282Z,100.00
2023-02-19T01:31:25.606Z,100.00
2023-02-19T01:32:12.745Z,100.00
2023-02-19T01:32:59.602Z,100.00
2023-02-19T01:33:47.871Z,100.00
2023-02-19T01:34:34.870Z,100.00
2023-02-19T01:35:21.712Z,100.00
2023-02-19T01:36:08.932Z,100.00
2023-02-19T01:36:55.842Z,100.00
2023-02-19T01:37:42.713Z,100.00
2023-02-19T01:38:29.531Z,100.00
2023-02-19T01:39:16.434Z,100.00
2023-02-19T01:40:03.572Z,100.00
2023-02-19T01:40:59.870Z,100.00
2023-02-19T01:41:46.714Z,100.00
2023-02-19T01:42:33.562Z,100.00
2023-02-19T01:43:20.403Z,100.00
2023-02-19T01:44:28.995Z,100.00
2023-02-19T01:45:26.289Z,100.00
2023-02-19T01:46:13.123Z,100.00
2023-02-19T01:46:59.995Z,100.00
2023-02-19T01:47:48.234Z,100.00
2023-02-19T01:48:37.933Z,100.00
2023-02-19T01:49:28.290Z,100.00
2023-02-19T01:50:15.233Z,100.00
2023-02-19T01:51:18.219Z,100.00
2023-02-19T01:52:10.525Z,100.00
2023-02-19T01:52:57.523Z,100.00
2023-02-19T01:53:47.129Z,100.00
2023-02-19T01:54:37.609Z,100.00
2023-02-19T01:55:24.731Z,100.00
2023-02-19T01:56:12.727Z,100.00
2023-02-19T01:57:00.244Z,100.00
2023-02-19T01:57:48.969Z,100.00
2023-02-19T01:58:37.007Z,100.00
2023-02-19T01:59:23.856Z,100.00
2023-02-19T02:00:13.556Z,100.00
2023-02-19T02:01:05.322Z,100.00
2023-02-19T02:01:52.286Z,100.00
2023-02-19T02:02:40.585Z,100.00
2023-02-19T02:03:27.486Z,100.00
2023-02-19T02:04:15.099Z,100.00
2023-02-19T02:05:02.471Z,100.00
2023-02-19T02:06:09.715Z,100.00
2023-02-19T02:06:57.056Z,100.00
2023-02-19T02:08:02.447Z,100.00
2023-02-19T02:09:14.115Z,100.00
2023-02-19T02:10:19.806Z,100.00
2023-02-19T02:11:06.728Z,100.00
2023-02-19T02:11:53.648Z,100.00
2023-02-19T02:12:40.517Z,100.00
2023-02-19T02:13:27.483Z,100.00
2023-02-19T02:14:15.178Z,100.00
2023-02-19T02:15:02.045Z,100.00
2023-02-19T02:16:07.751Z,100.00
2023-02-19T02:17:04.028Z,100.00
2023-02-19T02:17:57.759Z,100.00
2023-02-19T02:19:08.907Z,100.00
2023-02-19T02:20:07.268Z,100.00
2023-02-19T02:21:27.744Z,100.00
2023-02-19T02:22:21.488Z,100.00
2023-02-19T02:23:16.872Z,100.00
2023-02-19T02:24:24.711Z,100.00
2023-02-19T02:25:28.459Z,100.00
2023-02-19T02:26:33.497Z,100.00
2023-02-19T02:27:38.617Z,100.00
2023-02-19T02:28:59.038Z,100.00
2023-02-19T02:30:05.991Z,100.00
2023-02-19T02:31:05.245Z,100.00
2023-02-19T02:31:59.394Z,100.00
2023-02-19T02:32:55.198Z,100.00
2023-02-19T02:33:50.509Z,100.00
2023-02-19T02:34:45.821Z,100.00
2023-02-19T02:35:42.691Z,100.00
2023-02-19T02:36:32.132Z,100.00
2023-02-19T02:37:19.161Z,100.00
2023-02-19T02:38:08.452Z,100.00
2023-02-19T02:38:55.751Z,100.00
2023-02-19T02:39:43.268Z,100.00
2023-02-19T02:40:30.595Z,100.00
2023-02-19T02:41:17.542Z,100.00
2023-02-19T02:42:30.812Z,100.00
2023-02-19T02:43:17.777Z,100.00
2023-02-19T02:44:04.908Z,100.00
2023-02-19T02:45:10.583Z,100.00
2023-02-19T02:45:57.513Z,100.00
2023-02-19T02:46:45.630Z,100.00
2023-02-19T02:47:41.516Z,100.00
2023-02-19T02:48:41.418Z,100.00
2023-02-19T02:49:28.333Z,100.00
2023-02-19T02:50:28.160Z,100.00
2023-02-19T02:51:23.849Z,100.00
2023-02-19T02:52:30.728Z,100.00
2023-02-19T02:53:44.681Z,100.00
2023-02-19T02:54:52.400Z,100.00
2023-02-19T02:55:43.989Z,100.00
2023-02-19T02:56:31.369Z,100.00
2023-02-19T02:57:19.214Z,100.00
2023-02-19T02:58:06.588Z,100.00
2023-02-19T02:58:54.720Z,100.00
2023-02-19T02:59:42.722Z,100.00
2023-02-19T03:00:50.135Z,100.00
2023-02-19T03:01:57.186Z,100.00
2023-02-19T03:02:44.205Z,100.00
2023-02-19T03:03:32.778Z,100.00
2023-02-19T03:05:09.230Z,100.00
2023-02-19T03:06:01.329Z,100.00
2023-02-19T03:06:49.471Z,100.00
2023-02-19T03:07:40.038Z,100.00
2023-02-19T03:08:32.870Z,100.00
2023-02-19T03:09:30.466Z,100.00
2023-02-19T03:10:21.137Z,100.00
2023-02-19T03:11:27.679Z,100.00
2023-02-19T03:12:34.413Z,100.00
2023-02-19T03:13:53.008Z,100.00
2023-02-19T03:15:03.025Z,100.00
2023-02-19T03:16:14.073Z,100.00
2023-02-19T03:17:25.091Z,100.00
2023-02-19T03:18:31.268Z,100.00
2023-02-19T03:19:19.995Z,100.00
2023-02-19T03:20:11.423Z,100.00
2023-02-19T03:20:59.586Z,100.00
2023-02-19T03:22:01.406Z,100.00
2023-02-19T03:22:49.610Z,100.00
2023-02-19T03:23:55.758Z,100.00
2023-02-19T03:25:06.487Z,100.00
2023-02-19T03:26:05.614Z,100.00
2023-02-19T03:26:54.281Z,100.00
2023-02-19T03:27:43.114Z,100.00
2023-02-19T03:28:51.774Z,100.00
2023-02-19T03:29:40.364Z,100.00
2023-02-19T03:30:33.628Z,100.00
2023-02-19T03:31:23.021Z,100.00
2023-02-19T03:32:17.970Z,100.00
2023-02-19T03:33:09.589Z,99.96
2023-02-19T03:34:02.436Z,99.60
2023-02-19T03:34:54.675Z,99.36
2023-02-19T03:35:57.845Z,99.02
2023-02-19T03:36:51.334Z,98.52
2023-02-19T03:37:43.493Z,98.12
2023-02-19T03:38:52.224Z,98.07
2023-02-19T03:39:44.622Z,97.89
2023-02-19T03:40:35.454Z,97.87
2023-02-19T03:41:41.582Z,97.87
2023-02-19T03:43:05.674Z,97.92
2023-02-19T03:44:03.686Z,98.22
2023-02-19T03:45:09.184Z,97.95
2023-02-19T03:46:14.364Z,97.28
2023-02-19T03:47:23.215Z,97.28
2023-02-19T03:48:30.996Z,97.57
2023-02-19T03:49:17.905Z,97.98
2023-02-19T03:50:10.775Z,98.13
2023-02-19T03:51:17.846Z,98.09
2023-02-19T03:52:26.553Z,97.83
2023-02-19T03:53:34.804Z,97.85
2023-02-19T03:54:21.678Z,97.93
2023-02-19T03:55:11.652Z,97.23
2023-02-19T03:56:23.935Z,97.28
2023-02-19T03:57:18.529Z,97.04
2023-02-19T03:58:10.607Z,96.78
2023-02-19T03:59:10.208Z,97.05
2023-02-19T04:00:10.444Z,96.72
2023-02-19T04:01:06.772Z,96.14
2023-02-19T04:02:11.936Z,96.21
2023-02-19T04:03:20.400Z,95.77
2023-02-19T04:04:23.839Z,95.76
2023-02-19T04:05:15.237Z,96.10
2023-02-19T04:06:04.129Z,96.20
2023-02-19T04:06:54.822Z,96.21
2023-02-19T04:07:42.907Z,96.21
2023-02-19T04:08:30.480Z,96.04
2023-02-19T04:09:17.871Z,96.10
2023-02-19T04:10:06.450Z,96.07
2023-02-19T04:10:54.419Z,95.82
2023-02-19T04:11:41.547Z,95.70
2023-02-19T04:12:28.915Z,95.45
2023-02-19T04:13:30.208Z,95.86
2023-02-19T04:14:23.121Z,96.02
2023-02-19T04:15:16.639Z,96.34
2023-02-19T04:16:08.167Z,96.89
2023-02-19T04:17:00.223Z,96.30
2023-02-19T04:17:59.494Z,96.40
2023-02-19T04:18:48.401Z,96.45
2023-02-19T04:19:38.062Z,95.74
2023-02-19T04:20:28.073Z,95.66
2023-02-19T04:21:15.081Z,95.53
2023-02-19T04:22:02.390Z,95.62
2023-02-19T04:22:49.549Z,95.75
2023-02-19T04:23:41.221Z,95.53
2023-02-19T04:24:32.593Z,95.25
2023-02-19T04:25:20.032Z,95.14
2023-02-19T04:26:08.276Z,94.69
2023-02-19T04:26:56.109Z,94.54
2023-02-19T04:27:45.176Z,94.83
2023-02-19T04:28:32.070Z,95.34
2023-02-19T04:29:18.968Z,95.43
2023-02-19T04:30:07.454Z,95.40
2023-02-19T04:30:54.504Z,95.31
2023-02-19T04:31:41.458Z,95.16
2023-02-19T04:32:28.437Z,94.85
2023-02-19T04:33:15.364Z,94.71
2023-02-19T04:34:04.063Z,94.23
2023-02-19T04:34:52.296Z,94.28
2023-02-19T04:35:41.018Z,93.94
2023-02-19T04:36:27.957Z,94.27
2023-02-19T04:37:14.947Z,94.35
2023-02-19T04:38:02.007Z,94.71
2023-02-19T04:38:48.896Z,94.61
2023-02-19T04:39:35.859Z,94.93
2023-02-19T04:40:22.756Z,94.99
2023-02-19T04:41:10.239Z,95.15
2023-02-19T04:41:57.313Z,95.03
2023-02-19T04:42:44.224Z,95.20
2023-02-19T04:43:31.136Z,95.56
2023-02-19T04:44:18.051Z,95.98
2023-02-19T04:45:05.207Z,95.97
2023-02-19T04:45:52.155Z,96.12
2023-02-19T04:46:43.027Z,96.21
2023-02-19T04:47:32.179Z,96.38
2023-02-19T04:48:19.075Z,96.31
2023-02-19T04:49:06.013Z,96.41
2023-02-19T04:49:52.916Z,96.60
2023-02-19T04:50:40.578Z,96.60
2023-02-19T04:51:27.634Z,96.45
2023-02-19T04:52:14.613Z,96.45
2023-02-19T04:53:01.556Z,96.71
2023-02-19T04:53:48.474Z,96.77
2023-02-19T04:54:35.450Z,96.62
2023-02-19T04:55:22.355Z,96.59
2023-02-19T04:56:11.773Z,96.40
2023-02-19T04:56:58.655Z,100.00
2023-02-19T04:57:45.612Z,100.00
2023-02-19T04:58:32.481Z,98.48
2023-02-19T04:59:19.394Z,96.42
2023-02-19T05:00:08.258Z,96.28
2023-02-19T05:00:55.152Z,100.00
2023-02-19T05:01:42.085Z,95.85
2023-02-19T05:02:29.032Z,95.31
2023-02-19T05:03:16.134Z,94.67
2023-02-19T05:04:03.419Z,94.30
2023-02-19T05:04:50.359Z,94.74
2023-02-19T05:05:37.282Z,93.38
2023-02-19T05:06:24.175Z,94.86
2023-02-19T05:07:11.089Z,94.08
2023-02-19T05:07:57.945Z,95.19
2023-02-19T05:08:45.130Z,94.34
2023-02-19T05:09:32.085Z,92.71
2023-02-19T05:10:19.070Z,92.57
2023-02-19T05:11:07.836Z,92.08
2023-02-19T05:11:54.845Z,92.33
2023-02-19T05:12:41.784Z,92.72
2023-02-19T05:13:29.225Z,93.02
2023-02-19T05:14:17.410Z,93.22
2023-02-19T05:15:04.590Z,93.62
2023-02-19T05:15:59.227Z,93.47
2023-02-19T05:16:46.383Z,93.29
2023-02-19T05:17:34.694Z,93.41
2023-02-19T05:18:21.645Z,93.24
2023-02-19T05:19:11.730Z,93.87
2023-02-19T05:19:58.636Z,93.92
2023-02-19T05:20:45.552Z,94.26
2023-02-19T05:21:32.574Z,94.32
2023-02-19T05:22:19.623Z,93.89
2023-02-19T05:23:06.533Z,94.05
2023-02-19T05:23:53.445Z,94.40
2023-02-19T05:24:40.452Z,94.55
2023-02-19T05:25:27.504Z,94.88
2023-02-19T05:26:23.628Z,95.03
2023-02-19T05:27:10.642Z,94.93
2023-02-19T05:28:17.239Z,95.07
2023-02-19T05:29:04.362Z,95.23
2023-02-19T05:29:51.312Z,94.88
2023-02-19T05:30:38.290Z,94.93
2023-02-19T05:31:25.384Z,95.29
2023-02-19T05:32:12.444Z,95.33
2023-02-19T05:32:59.425Z,94.80
2023-02-19T05:33:50.436Z,95.04
2023-02-19T05:34:37.386Z,95.00
2023-02-19T05:35:24.338Z,95.25
2023-02-19T05:36:13.245Z,95.51
2023-02-19T05:37:00.217Z,95.16
2023-02-19T05:37:47.206Z,95.60
2023-02-19T05:38:34.314Z,95.68
2023-02-19T05:39:21.343Z,95.51
2023-02-19T05:40:08.616Z,95.36
2023-02-19T05:40:55.467Z,95.38
2023-02-19T05:41:42.447Z,95.16
2023-02-19T05:42:29.428Z,94.94
2023-02-19T05:43:16.628Z,94.78
2023-02-19T05:44:03.570Z,94.84
2023-02-19T05:44:50.523Z,95.07
2023-02-19T05:45:37.487Z,95.63
2023-02-19T05:46:27.603Z,95.46
2023-02-19T05:47:14.639Z,95.87
2023-02-19T05:48:01.743Z,96.13
2023-02-19T05:48:49.738Z,96.27
2023-02-19T05:49:36.699Z,96.84
2023-02-19T05:50:23.917Z,97.05
2023-02-19T05:51:16.021Z,97.12
2023-02-19T05:52:03.107Z,96.54
2023-02-19T05:52:50.093Z,96.27
2023-02-19T05:53:37.439Z,96.54
2023-02-19T05:54:24.466Z,96.54
2023-02-19T05:55:12.093Z,96.44
2023-02-19T05:55:59.587Z,96.47
2023-02-19T05:56:46.700Z,96.12
2023-02-19T05:57:33.659Z,95.98
2023-02-19T05:58:20.583Z,96.02
2023-02-19T05:59:21.686Z,95.45
2023-02-19T06:00:11.221Z,93.44
2023-02-19T06:00:58.233Z,93.00
2023-02-19T06:01:45.606Z,92.31
2023-02-19T06:02:32.524Z,91.37
2023-02-19T06:03:19.577Z,91.77
2023-02-19T06:04:06.782Z,91.71
2023-02-19T06:04:53.899Z,91.60
2023-02-19T06:05:40.924Z,92.48
2023-02-19T06:06:27.981Z,92.05
2023-02-19T06:07:14.924Z,91.73
2023-02-19T06:08:01.823Z,91.56
2023-02-19T06:08:50.483Z,90.61
2023-02-19T06:09:37.500Z,89.99
2023-02-19T06:10:24.501Z,90.34
2023-02-19T06:11:11.713Z,91.18
2023-02-19T06:11:58.862Z,91.28
2023-02-19T06:12:45.810Z,91.63
2023-02-19T06:13:32.670Z,92.02
2023-02-19T06:14:19.620Z,93.06
2023-02-19T06:15:07.003Z,92.67
2023-02-19T06:15:53.980Z,92.38
2023-02-19T06:16:41.188Z,91.94
2023-02-19T06:17:28.114Z,91.61
2023-02-19T06:18:15.041Z,91.25
2023-02-19T06:19:05.393Z,91.04
2023-02-19T06:19:52.335Z,91.14
2023-02-19T06:20:39.347Z,91.20
2023-02-19T06:21:26.250Z,90.89
2023-02-19T06:22:15.211Z,90.49
2023-02-19T06:23:02.148Z,90.26
2023-02-19T06:23:49.124Z,90.65
2023-02-19T06:24:37.799Z,91.09
2023-02-19T06:25:24.721Z,91.05
2023-02-19T06:26:18.368Z,91.00
2023-02-19T06:27:09.550Z,90.30
2023-02-19T06:27:56.531Z,90.21
2023-02-19T06:28:43.817Z,90.19
2023-02-19T06:29:32.762Z,90.17
2023-02-19T06:30:19.832Z,90.62
2023-02-19T06:31:07.422Z,90.50
2023-02-19T06:31:54.514Z,89.82
2023-02-19T06:32:41.525Z,90.41
2023-02-19T06:33:28.714Z,90.46
2023-02-19T06:34:15.644Z,90.15
2023-02-19T06:35:02.755Z,89.96
2023-02-19T06:35:49.674Z,90.13
2023-02-19T06:36:36.575Z,89.58
2023-02-19T06:37:23.511Z,90.37
2023-02-19T06:38:10.387Z,90.54
2023-02-19T06:39:00.445Z,90.28
2023-02-19T06:39:47.422Z,90.05
2023-02-19T06:40:34.296Z,89.21
2023-02-19T06:41:21.173Z,89.73
2023-02-19T06:42:08.048Z,89.99
2023-02-19T06:42:55.008Z,89.87
2023-02-19T06:43:42.456Z,89.43
2023-02-19T06:44:29.481Z,89.78
2023-02-19T06:45:16.532Z,89.53
2023-02-19T06:46:05.491Z,89.45
2023-02-19T06:46:55.567Z,89.78
2023-02-19T06:47:42.709Z,90.32
2023-02-19T06:48:30.794Z,90.78
2023-02-19T06:49:18.081Z,89.94
2023-02-19T06:50:05.256Z,89.53
2023-02-19T06:50:52.230Z,89.35
2023-02-19T06:51:39.357Z,89.17
2023-02-19T06:52:27.345Z,89.56
2023-02-19T06:53:14.336Z,89.83
2023-02-19T06:54:04.682Z,89.38
2023-02-19T06:54:51.606Z,89.59
2023-02-19T06:55:40.637Z,89.35
2023-02-19T06:56:28.978Z,88.76
2023-02-19T06:57:15.996Z,88.59
2023-02-19T06:58:02.832Z,88.53
2023-02-19T06:58:49.701Z,88.63
2023-02-19T06:59:36.645Z,88.01
2023-02-19T07:00:23.659Z,88.55
2023-02-19T07:01:12.470Z,88.45
2023-02-19T07:01:59.635Z,89.13
2023-02-19T07:02:46.537Z,89.45
2023-02-19T07:03:33.495Z,89.69
2023-02-19T07:04:20.504Z,89.85
2023-02-19T07:05:07.716Z,89.60
2023-02-19T07:05:54.702Z,90.03
2023-02-19T07:06:41.749Z,89.37
2023-02-19T07:07:28.638Z,88.64
2023-02-19T07:08:17.569Z,88.25
2023-02-19T07:09:05.803Z,87.64
2023-02-19T07:09:52.855Z,87.78
2023-02-19T07:10:40.001Z,87.74
2023-02-19T07:11:30.364Z,88.33
2023-02-19T07:12:17.265Z,88.24
2023-02-19T07:13:04.254Z,87.94
2023-02-19T07:14:01.122Z,87.95
2023-02-19T07:14:48.475Z,89.99
2023-02-19T07:15:35.395Z,92.27
2023-02-19T07:16:22.640Z,91.85
2023-02-19T07:17:09.581Z,91.22
2023-02-19T07:17:56.516Z,90.59
2023-02-19T07:18:43.530Z,90.50
2023-02-19T07:19:30.482Z,91.74
2023-02-19T07:20:17.486Z,91.98
2023-02-19T07:21:05.283Z,92.55
2023-02-19T07:21:52.271Z,93.06
2023-02-19T07:22:39.205Z,94.11
2023-02-19T07:23:26.115Z,95.29
2023-02-19T07:24:13.158Z,96.04
2023-02-19T07:25:00.010Z,95.97
2023-02-19T07:25:46.918Z,95.37
2023-02-19T07:26:33.816Z,95.93
2023-02-19T07:27:20.778Z,96.69
2023-02-19T07:28:07.893Z,96.47
2023-02-19T07:28:54.792Z,96.15
2023-02-19T07:29:41.743Z,96.37
2023-02-19T07:30:28.735Z,96.14
2023-02-19T07:31:16.486Z,98.38
2023-02-19T07:32:03.637Z,99.70
2023-02-19T07:32:50.599Z,99.28
2023-02-19T07:33:37.756Z,98.45
2023-02-19T07:34:24.720Z,99.53
2023-02-19T07:35:11.860Z,97.71
2023-02-19T07:35:58.903Z,97.44
2023-02-19T07:36:45.832Z,99.51
2023-02-19T07:37:32.735Z,99.80
2023-02-19T07:38:21.143Z,99.82
2023-02-19T07:39:10.057Z,98.86
2023-02-19T07:39:57.121Z,97.71
2023-02-19T07:40:57.452Z,97.99
2023-02-19T07:41:44.384Z,98.12
2023-02-19T07:42:31.271Z,97.60
2023-02-19T07:43:18.515Z,99.19
2023-02-19T07:44:05.767Z,100.00
2023-02-19T07:44:52.618Z,100.00
2023-02-19T07:45:39.570Z,100.00
2023-02-19T07:46:26.736Z,100.00
2023-02-19T07:47:13.614Z,100.00
2023-02-19T07:48:00.484Z,100.00
2023-02-19T07:48:47.433Z,100.00
2023-02-19T07:49:34.514Z,100.00
2023-02-19T07:50:21.424Z,100.00
2023-02-19T07:51:12.475Z,100.00
2023-02-19T07:51:59.654Z,100.00
2023-02-19T07:52:46.575Z,99.62
2023-02-19T07:53:34.806Z,100.00
2023-02-19T07:54:21.747Z,100.00
2023-02-19T07:55:08.696Z,100.00
2023-02-19T07:56:00.258Z,100.00
2023-02-19T07:56:47.207Z,100.00
2023-02-19T07:57:34.106Z,100.00
2023-02-19T07:58:21.093Z,99.69
2023-02-19T07:59:08.116Z,98.70
2023-02-19T07:59:55.115Z,99.16
2023-02-19T08:00:42.213Z,98.42
2023-02-19T08:02:07.225Z,98.63
2023-02-19T08:03:00.215Z,99.09
2023-02-19T08:03:50.342Z,98.22
2023-02-19T08:04:37.489Z,97.83
2023-02-19T08:05:24.588Z,97.24
2023-02-19T08:06:12.698Z,96.37
2023-02-19T08:06:59.656Z,96.36
2023-02-19T08:07:46.618Z,96.69
2023-02-19T08:08:33.653Z,97.56
2023-02-19T08:09:20.557Z,97.61
2023-02-19T08:10:26.860Z,96.64
2023-02-19T08:11:32.142Z,98.51
2023-02-19T08:12:37.697Z,98.36
2023-02-19T08:13:25.826Z,97.32
2023-02-19T08:14:12.739Z,96.73
2023-02-19T08:14:59.634Z,97.07
2023-02-19T08:15:47.428Z,98.96
2023-02-19T08:16:42.916Z,99.61
2023-02-19T08:17:31.422Z,98.88
2023-02-19T08:18:20.169Z,99.99
2023-02-19T08:19:07.064Z,100.00
2023-02-19T08:19:53.957Z,100.00
2023-02-19T08:20:41.063Z,100.00
2023-02-19T08:21:28.072Z,100.00
2023-02-19T08:22:16.493Z,100.00
2023-02-19T08:23:03.367Z,100.00
2023-02-19T08:23:51.254Z,100.00
2023-02-19T08:24:43.097Z,100.00
2023-02-19T08:25:30.366Z,100.00
2023-02-19T08:26:17.296Z,100.00
2023-02-19T08:27:04.358Z,100.00
2023-02-19T08:27:51.315Z,100.00
2023-02-19T08:28:38.267Z,100.00
2023-02-19T08:29:25.287Z,100.00
2023-02-19T08:30:12.492Z,100.00
2023-02-19T08:31:06.172Z,100.00
2023-02-19T08:31:53.182Z,100.00
2023-02-19T08:32:40.135Z,100.00
2023-02-19T08:33:27.103Z,100.00
2023-02-19T08:34:14.013Z,100.00
2023-02-19T08:35:00.906Z,100.00
2023-02-19T08:35:48.026Z,100.00
2023-02-19T08:36:34.926Z,100.00
2023-02-19T08:37:21.918Z,100.00
2023-02-19T08:38:09.784Z,100.00
2023-02-19T08:38:56.781Z,100.00
2023-02-19T08:39:43.713Z,100.00
2023-02-19T08:40:30.825Z,100.00
2023-02-19T08:41:17.854Z,100.00
2023-02-19T08:42:04.997Z,100.00
2023-02-19T08:42:51.999Z,100.00
2023-02-19T08:43:39.607Z,100.00
2023-02-19T08:44:26.499Z,100.00
2023-02-19T08:45:13.417Z,100.00
2023-02-19T08:46:00.386Z,100.00
2023-02-19T08:46:47.391Z,100.00
2023-02-19T08:47:38.404Z,100.00
2023-02-19T08:48:25.358Z,100.00
2023-02-19T08:49:12.273Z,100.00
2023-02-19T08:49:59.235Z,100.00
2023-02-19T08:50:46.205Z,100.00
2023-02-19T08:51:33.092Z,100.00
2023-02-19T08:52:20.022Z,100.00
2023-02-19T08:53:07.351Z,100.00
2023-02-19T08:53:54.322Z,100.00
2023-02-19T08:54:41.289Z,100.00
2023-02-19T08:55:28.843Z,100.00
2023-02-19T08:56:17.685Z,100.00
2023-02-19T08:57:05.449Z,100.00
2023-02-19T08:57:52.431Z,100.00
2023-02-19T08:58:41.844Z,100.00
2023-02-19T08:59:29.629Z,100.00
2023-02-19T09:00:16.890Z,100.00
2023-02-19T09:01:08.205Z,100.00
2023-02-19T09:01:55.282Z,100.00
2023-02-19T09:02:42.293Z,100.00
2023-02-19T09:03:29.295Z,100.00
2023-02-19T09:04:16.239Z,100.00
2023-02-19T09:05:03.448Z,100.00
2023-02-19T09:05:50.350Z,100.00
2023-02-19T09:06:39.788Z,100.00
2023-02-19T09:07:27.532Z,100.00
2023-02-19T09:08:14.637Z,100.00
2023-02-19T09:09:01.488Z,100.00
2023-02-19T09:09:48.398Z,100.00
2023-02-19T09:10:35.311Z,100.00
2023-02-19T09:11:22.361Z,100.00
2023-02-19T09:12:10.912Z,100.00
2023-02-19T09:12:57.858Z,100.00
2023-02-19T09:13:45.164Z,100.00
2023-02-19T09:14:33.380Z,100.00
2023-02-19T09:15:20.370Z,100.00
2023-02-19T09:16:07.596Z,100.00
2023-02-19T09:16:54.577Z,100.00
2023-02-19T09:17:41.469Z,100.00
2023-02-19T09:18:28.429Z,100.00
2023-02-19T09:19:15.279Z,100.00
2023-02-19T09:20:02.357Z,100.00
2023-02-19T09:20:49.269Z,100.00
2023-02-19T09:21:36.371Z,100.00
2023-02-19T09:22:23.272Z,100.00
2023-02-19T09:23:10.150Z,100.00
2023-02-19T09:23:57.035Z,100.00
2023-02-19T09:24:44.643Z,100.00
2023-02-19T09:25:31.563Z,100.00
2023-02-19T09:26:18.618Z,100.00
2023-02-19T09:27:05.554Z,100.00
2023-02-19T09:27:55.971Z,100.00
2023-02-19T09:28:43.367Z,100.00
2023-02-19T09:29:31.216Z,100.00
2023-02-19T09:30:18.277Z,100.00
2023-02-19T09:31:11.520Z,100.00
2023-02-19T09:32:00.236Z,100.00
2023-02-19T09:32:47.243Z,100.00
2023-02-19T09:33:34.334Z,100.00
2023-02-19T09:34:21.259Z,100.00
2023-02-19T09:35:08.249Z,100.00
2023-02-19T09:35:55.173Z,100.00
2023-02-19T09:36:42.191Z,100.00
2023-02-19T09:37:29.644Z,100.00
2023-02-19T09:38:16.583Z,100.00
2023-02-19T09:39:06.744Z,99.38
2023-02-19T09:39:54.578Z,99.54
2023-02-19T09:40:41.564Z,98.88
2023-02-19T09:41:34.032Z,97.49
2023-02-19T09:42:30.479Z,97.36
2023-02-19T09:43:21.463Z,98.31
2023-02-19T09:44:11.258Z,97.39
2023-02-19T09:44:59.946Z,97.53
2023-02-19T09:45:47.745Z,99.16
2023-02-19T09:46:44.844Z,98.36
2023-02-19T09:47:33.836Z,97.39
2023-02-19T09:48:20.877Z,97.60
2023-02-19T09:49:28.806Z,98.57
2023-02-19T09:50:19.395Z,95.75
2023-02-19T09:51:06.222Z,97.57
2023-02-19T09:52:01.577Z,97.24
2023-02-19T09:52:57.720Z,98.77
2023-02-19T09:53:47.838Z,99.20
2023-02-19T09:54:37.132Z,96.98
2023-02-19T09:55:36.931Z,98.00
2023-02-19T09:56:25.844Z,98.74
2023-02-19T09:57:16.740Z,97.48
2023-02-19T09:58:25.984Z,96.00
2023-02-19T09:59:22.727Z,95.01
2023-02-19T10:00:12.745Z,94.04
2023-02-19T10:01:02.756Z,92.08
2023-02-19T10:01:56.341Z,93.53
2023-02-19T10:02:43.548Z,93.39
2023-02-19T10:03:38.711Z,92.69
2023-02-19T10:04:25.925Z,91.97
2023-02-19T10:05:16.857Z,91.26
2023-02-19T10:06:11.251Z,91.08
2023-02-19T10:07:03.703Z,95.46
2023-02-19T10:07:53.032Z,91.99
2023-02-19T10:08:41.429Z,90.99
2023-02-19T10:09:30.793Z,91.68
2023-02-19T10:10:35.753Z,93.07
2023-02-19T10:11:24.027Z,92.56
2023-02-19T10:12:16.860Z,92.95
2023-02-19T10:13:31.101Z,92.08
2023-02-19T10:14:26.949Z,93.57
2023-02-19T10:15:17.856Z,93.41
2023-02-19T10:16:07.627Z,90.89
2023-02-19T10:16:54.819Z,91.55
2023-02-19T10:17:42.269Z,93.59
2023-02-19T10:18:38.432Z,92.17
2023-02-19T10:19:25.598Z,94.01
2023-02-19T10:20:17.677Z,91.33
2023-02-19T10:21:04.878Z,90.66
2023-02-19T10:21:51.928Z,87.40
2023-02-19T10:22:39.316Z,87.31
2023-02-19T10:23:26.940Z,88.09
2023-02-19T10:24:40.259Z,88.94
2023-02-19T10:25:27.768Z,88.89
2023-02-19T10:26:14.979Z,88.86
2023-02-19T10:27:02.080Z,88.22
2023-02-19T10:27:49.734Z,87.68
2023-02-19T10:28:37.192Z,87.95
2023-02-19T10:29:25.290Z,85.89
2023-02-19T10:30:24.962Z,85.72
2023-02-19T10:31:24.853Z,87.03
2023-02-19T10:32:21.960Z,85.24
2023-02-19T10:33:14.317Z,86.63
2023-02-19T10:34:02.336Z,84.52
2023-02-19T10:34:49.801Z,83.28